createdAt,value
2023-02-18T00:01:09.415Z,23.20
2023-02-18T00:03:57.623Z,19.50
2023-02-18T00:06:44.984Z,22.70
2023-02-18T00:09:32.351Z,18.63
2023-02-18T00:12:19.695Z,16.20
2023-02-18T00:15:07.192Z,21.13
2023-02-18T00:17:54.597Z,23.40
2023-02-18T00:20:41.961Z,21.53
2023-02-18T00:23:29.346Z,19.60
2023-02-18T00:26:17.579Z,20.40
2023-02-18T00:29:05.091Z,29.37
2023-02-18T00:31:52.632Z,19.90
2023-02-18T00:34:40.160Z,19.90
2023-02-18T00:37:27.500Z,19.93
2023-02-18T00:40:14.808Z,17.10
2023-02-18T00:43:02.167Z,19.87
2023-02-18T00:45:49.623Z,23.93
2023-02-18T00:48:37.443Z,17.73
2023-02-18T00:51:25.440Z,21.07
2023-02-18T00:54:12.789Z,25.27
2023-02-18T00:57:00.172Z,21.47
2023-02-18T00:59:47.530Z,23.80
2023-02-18T01:02:35.188Z,23.20
2023-02-18T01:05:22.564Z,20.83
2023-02-18T01:08:10.669Z,19.93
2023-02-18T01:10:58.946Z,16.43
2023-02-18T01:13:46.316Z,14.73
2023-02-18T01:16:33.730Z,14.20
2023-02-18T01:19:21.107Z,22.03
2023-02-18T01:22:08.485Z,19.10
2023-02-18T01:24:55.826Z,21.10
2023-02-18T01:27:43.299Z,17.77
2023-02-18T01:30:30.811Z,16.23
2023-02-18T01:33:18.323Z,17.97
2023-02-18T01:36:06.665Z,17.70
2023-02-18T01:38:54.352Z,24.07
2023-02-18T01:41:41.674Z,19.73
2023-02-18T01:44:29.874Z,25.43
2023-02-18T01:47:17.760Z,27.90
2023-02-18T01:50:05.455Z,16.33
2023-02-18T01:52:52.840Z,24.43
2023-02-18T01:55:40.193Z,19.20
2023-02-18T01:58:27.654Z,24.63
2023-02-18T02:01:15.223Z,24.13
2023-02-18T02:04:03.171Z,21.60
2023-02-18T02:06:50.513Z,25.23
2023-02-18T02:09:39.257Z,24.90
2023-02-18T02:12:32.384Z,22.30
2023-02-18T02:15:38.396Z,25.27
2023-02-18T02:18:39.774Z,24.87
2023-02-18T02:21:36.038Z,23.93
2023-02-18T02:24:44.608Z,17.63
2023-02-18T02:27:42.554Z,21.77
2023-02-18T02:30:32.770Z,21.13
2023-02-18T02:33:26.402Z,19.50
2023-02-18T02:36:16.581Z,12.43
2023-02-18T02:39:10.714Z,19.30
2023-02-18T02:42:10.379Z,23.43
2023-02-18T02:45:09.903Z,18.27
2023-02-18T02:48:06.592Z,18.23
2023-02-18T02:50:59.098Z,21.80
2023-02-18T02:53:46.484Z,22.53
2023-02-18T02:56:33.892Z,26.80
2023-02-18T02:59:22.860Z,17.63
2023-02-18T03:02:28.844Z,22.67
2023-02-18T03:05:22.242Z,13.97
2023-02-18T03:08:15.313Z,21.07
2023-02-18T03:11:02.637Z,22.50
2023-02-18T03:14:05.304Z,18.90
2023-02-18T03:16:56.714Z,21.73
2023-02-18T03:19:47.947Z,22.00
2023-02-18T03:22:38.619Z,17.27
2023-02-18T03:25:26.499Z,18.27
2023-02-18T03:28:18.745Z,19.70
2023-02-18T03:31:10.634Z,23.27
2023-02-18T03:34:02.019Z,21.67
2023-02-18T03:36:49.557Z,15.83
2023-02-18T03:39:37.843Z,16.03
2023-02-18T03:42:28.987Z,21.53
2023-02-18T03:45:16.357Z,15.30
2023-02-18T03:48:03.928Z,19.27
2023-02-18T03:50:51.299Z,20.43
2023-02-18T03:53:38.685Z,25.17
2023-02-18T03:56:26.042Z,18.27
2023-02-18T03:59:13.595Z,14.33
2023-02-18T04:02:00.968Z,15.43
2023-02-18T04:04:48.332Z,18.40
2023-02-18T04:07:35.874Z,11.07
2023-02-18T04:10:23.389Z,16.17
2023-02-18T04:13:11.058Z,17.97
2023-02-18T04:15:58.509Z,13.70
2023-02-18T04:18:45.859Z,13.30
2023-02-18T04:21:33.691Z,12.50
2023-02-18T04:24:21.097Z,23.03
2023-02-18T04:27:08.470Z,14.70
2023-02-18T04:29:55.991Z,10.33
2023-02-18T04:32:43.330Z,10.80
2023-02-18T04:35:30.677Z,10.43
2023-02-18T04:38:18.089Z,8.47
2023-02-18T04:41:05.579Z,14.80
2023-02-18T04:43:52.984Z,12.77
2023-02-18T04:46:40.357Z,8.27
2023-02-18T04:49:27.769Z,4.97
2023-02-18T04:52:15.103Z,11.07
2023-02-18T04:55:02.543Z,26.83
2023-02-18T04:57:49.878Z,10.77
2023-02-18T05:00:37.253Z,7.30
2023-02-18T05:03:24.890Z,8.33
2023-02-18T05:06:12.478Z,7.63
2023-02-18T05:08:59.927Z,9.87
2023-02-18T05:11:47.716Z,7.40
2023-02-18T05:14:35.057Z,8.80
2023-02-18T05:17:22.457Z,6.87
2023-02-18T05:20:10.165Z,8.10
2023-02-18T05:22:57.509Z,10.83
2023-02-18T05:25:51.172Z,8.83
2023-02-18T05:28:42.031Z,11.77
2023-02-18T05:31:33.060Z,12.60
2023-02-18T05:34:20.516Z,10.37
2023-02-18T05:37:20.506Z,10.10
2023-02-18T05:40:11.992Z,10.33
2023-02-18T05:43:15.235Z,15.67
2023-02-18T05:46:22.044Z,13.53
2023-02-18T05:49:12.337Z,9.57
2023-02-18T05:52:30.206Z,13.93
2023-02-18T05:55:21.052Z,8.87
2023-02-18T05:58:15.196Z,10.60
2023-02-18T06:01:14.589Z,10.27
2023-02-18T06:04:06.821Z,14.20
2023-02-18T06:06:59.724Z,7.43
2023-02-18T06:12:54.170Z,9.43
2023-02-18T06:15:44.408Z,10.43
2023-02-18T06:18:55.106Z,14.93
2023-02-18T06:22:01.028Z,11.47
2023-02-18T06:24:51.792Z,12.90
2023-02-18T06:27:43.916Z,11.30
2023-02-18T06:30:31.400Z,8.87
2023-02-18T06:33:18.792Z,10.37
2023-02-18T06:36:08.214Z,14.07
2023-02-18T06:39:14.748Z,9.00
2023-02-18T06:45:13.470Z,11.60
2023-02-18T06:48:04.066Z,13.50
2023-02-18T06:51:01.529Z,5.83
2023-02-18T06:53:56.377Z,9.60
2023-02-18T06:56:54.721Z,9.17
2023-02-18T07:00:02.870Z,6.07
2023-02-18T07:02:57.197Z,11.33
2023-02-18T07:06:00.381Z,8.40
2023-02-18T07:08:57.530Z,11.87
2023-02-18T07:12:00.764Z,9.23
2023-02-18T07:15:28.318Z,9.13
2023-02-18T07:18:32.759Z,9.13
2023-02-18T07:21:28.493Z,8.57
2023-02-18T07:24:22.437Z,15.20
2023-02-18T07:27:12.817Z,11.73
2023-02-18T07:30:05.082Z,6.13
2023-02-18T07:33:08.170Z,9.20
2023-02-18T07:36:21.826Z,6.37
2023-02-18T07:39:13.062Z,7.40
2023-02-18T07:42:09.601Z,6.63
2023-02-18T07:45:15.528Z,9.63
2023-02-18T07:51:18.161Z,6.60
2023-02-18T07:54:14.736Z,9.20
2023-02-18T07:57:11.533Z,7.07
2023-02-18T08:00:22.576Z,4.43
2023-02-18T08:03:24.939Z,6.33
2023-02-18T08:06:25.974Z,9.43
2023-02-18T08:09:13.993Z,3.93
2023-02-18T08:12:01.728Z,5.30
2023-02-18T08:14:49.142Z,4.80
2023-02-18T08:17:36.521Z,7.43
2023-02-18T08:20:24.107Z,4.57
2023-02-18T08:23:11.685Z,4.57
2023-02-18T08:25:59.039Z,5.27
2023-02-18T08:28:47.146Z,4.60
2023-02-18T08:31:35.015Z,6.10
2023-02-18T08:34:22.650Z,6.67
2023-02-18T08:37:10.139Z,7.87
2023-02-18T08:39:57.517Z,6.53
2023-02-18T08:42:44.853Z,7.80
2023-02-18T08:45:33.555Z,5.00
2023-02-18T08:48:23.984Z,3.93
2023-02-18T08:51:22.343Z,9.27
2023-02-18T08:54:09.707Z,8.77
2023-02-18T08:56:57.809Z,7.77
2023-02-18T08:59:45.173Z,6.17
2023-02-18T09:02:32.940Z,6.43
2023-02-18T09:05:20.432Z,5.17
2023-02-18T09:08:07.928Z,8.10
2023-02-18T09:10:56.585Z,5.27
2023-02-18T09:13:43.941Z,4.80
2023-02-18T09:16:31.472Z,5.40
2023-02-18T09:19:19.065Z,7.40
2023-02-18T09:22:06.504Z,4.03
2023-02-18T09:24:53.886Z,5.83
2023-02-18T09:27:41.257Z,9.30
2023-02-18T09:30:28.764Z,5.83
2023-02-18T09:33:16.587Z,8.37
2023-02-18T09:36:04.144Z,7.70
2023-02-18T09:38:51.953Z,10.68
2023-02-18T09:41:44.493Z,9.20
2023-02-18T09:44:58.249Z,12.97
2023-02-18T09:47:46.082Z,9.20
2023-02-18T09:50:34.346Z,10.03
2023-02-18T09:53:23.145Z,4.57
2023-02-18T09:56:12.692Z,4.90
2023-02-18T09:59:02.532Z,11.93
2023-02-18T10:01:52.179Z,9.90
2023-02-18T10:04:45.649Z,10.57
2023-02-18T10:07:33.506Z,8.70
2023-02-18T10:10:41.153Z,11.97
2023-02-18T10:13:33.101Z,6.90
2023-02-18T10:16:21.926Z,9.27
2023-02-18T10:19:15.396Z,7.37
2023-02-18T10:22:04.434Z,7.70
2023-02-18T10:24:56.093Z,8.90
2023-02-18T10:27:43.469Z,8.30
2023-02-18T10:30:36.577Z,7.83
2023-02-18T10:33:23.959Z,7.03
2023-02-18T10:36:28.891Z,9.87
2023-02-18T10:39:33.018Z,6.50
2023-02-18T10:42:58.977Z,6.30
2023-02-18T10:46:15.671Z,4.93
2023-02-18T10:49:03.223Z,5.13
2023-02-18T10:51:52.348Z,8.37
2023-02-18T10:54:58.167Z,7.50
2023-02-18T10:57:52.429Z,8.53
2023-02-18T11:00:40.679Z,7.80
2023-02-18T11:03:39.547Z,8.67
2023-02-18T11:06:34.722Z,8.90
2023-02-18T11:09:28.041Z,9.80
2023-02-18T11:12:26.758Z,8.60
2023-02-18T11:15:17.705Z,10.37
2023-02-18T11:18:29.176Z,13.33
2023-02-18T11:21:21.412Z,14.13
2023-02-18T11:24:16.506Z,7.93
2023-02-18T11:27:08.840Z,10.73
2023-02-18T11:30:16.732Z,10.13
2023-02-18T11:33:07.870Z,9.43
2023-02-18T11:35:56.928Z,9.33
2023-02-18T11:38:58.281Z,9.53
2023-02-18T11:41:50.265Z,7.73
2023-02-18T11:44:42.441Z,8.23
2023-02-18T11:47:37.331Z,7.57
2023-02-18T11:50:24.809Z,7.93
2023-02-18T11:53:32.445Z,5.97
2023-02-18T11:56:20.559Z,8.60
2023-02-18T11:59:11.029Z,4.90
2023-02-18T12:02:18.698Z,6.07
2023-02-18T12:05:12.038Z,9.37
2023-02-18T12:08:02.206Z,6.33
2023-02-18T12:10:54.057Z,4.20
2023-02-18T12:13:51.120Z,4.17
2023-02-18T12:16:57.459Z,4.47
2023-02-18T12:20:04.071Z,5.63
2023-02-18T12:23:14.459Z,5.43
2023-02-18T12:26:20.522Z,7.03
2023-02-18T12:29:18.314Z,7.07
2023-02-18T12:32:13.466Z,5.00
2023-02-18T12:35:19.717Z,4.77
2023-02-18T12:38:10.182Z,5.10
2023-02-18T12:41:26.874Z,5.63
2023-02-18T12:44:32.783Z,4.07
2023-02-18T12:47:38.371Z,4.57
2023-02-18T12:50:39.334Z,3.53
2023-02-18T12:53:29.772Z,3.50
2023-02-18T12:56:32.173Z,5.63
2023-02-18T12:59:19.485Z,4.30
2023-02-18T13:02:09.626Z,3.63
2023-02-18T13:05:09.117Z,4.67
2023-02-18T13:07:56.449Z,2.93
2023-02-18T13:10:46.563Z,4.27
2023-02-18T13:13:35.434Z,2.33
2023-02-18T13:16:23.996Z,2.60
2023-02-18T13:19:14.402Z,2.03
2023-02-18T13:22:04.332Z,3.27
2023-02-18T13:24:52.739Z,2.73
2023-02-18T13:27:49.226Z,2.87
2023-02-18T13:30:43.871Z,1.80
2023-02-18T13:33:34.363Z,1.80
2023-02-18T13:36:33.166Z,2.60
2023-02-18T13:39:22.196Z,3.53
2023-02-18T13:42:23.105Z,1.80
2023-02-18T13:45:24.407Z,0.67
2023-02-18T13:48:26.953Z,0.80
2023-02-18T13:51:34.565Z,0.70
2023-02-18T13:54:25.236Z,1.13
2023-02-18T13:57:22.636Z,1.07
2023-02-18T14:00:20.392Z,0.80
2023-02-18T14:03:22.240Z,2.20
2023-02-18T14:06:23.316Z,0.60
2023-02-18T14:09:13.882Z,2.00
2023-02-18T14:12:19.871Z,0.87
2023-02-18T14:15:30.591Z,0.80
2023-02-18T14:18:25.675Z,1.13
2023-02-18T14:21:12.992Z,0.70
2023-02-18T14:24:01.892Z,2.00
2023-02-18T14:26:49.729Z,1.87
2023-02-18T14:29:37.206Z,1.43
2023-02-18T14:32:25.691Z,0.53
2023-02-18T14:35:32.076Z,0.73
2023-02-18T14:38:24.813Z,0.77
2023-02-18T14:41:30.952Z,0.70
2023-02-18T14:44:37.248Z,0.60
2023-02-18T14:47:24.600Z,0.60
2023-02-18T14:50:13.788Z,0.93
2023-02-18T14:53:04.282Z,0.67
2023-02-18T14:55:54.886Z,0.60
2023-02-18T14:58:45.584Z,2.10
2023-02-18T15:01:34.111Z,1.07
2023-02-18T15:04:21.479Z,1.40
2023-02-18T15:07:12.328Z,1.40
2023-02-18T15:10:00.659Z,1.30
2023-02-18T15:12:48.042Z,1.27
2023-02-18T15:15:38.674Z,1.37
2023-02-18T15:18:48.695Z,1.83
2023-02-18T15:21:39.307Z,1.20
2023-02-18T15:24:37.483Z,2.13
2023-02-18T15:27:32.392Z,1.33
2023-02-18T15:30:19.833Z,1.50
2023-02-18T15:33:13.062Z,1.33
2023-02-18T15:36:04.647Z,1.30
2023-02-18T15:38:52.011Z,1.10
2023-02-18T15:41:40.100Z,1.47
2023-02-18T15:44:28.699Z,1.53
2023-02-18T15:47:17.485Z,1.70
2023-02-18T15:50:05.171Z,1.87
2023-02-18T15:52:53.970Z,2.00
2023-02-18T15:55:46.650Z,2.37
2023-02-18T15:58:34.694Z,1.90
2023-02-18T16:01:29.612Z,3.53
2023-02-18T16:04:17.208Z,4.40
2023-02-18T16:07:23.245Z,1.67
2023-02-18T16:10:16.457Z,1.87
2023-02-18T16:13:04.751Z,2.17
2023-02-18T16:15:52.679Z,2.57
2023-02-18T16:18:40.914Z,1.50
2023-02-18T16:21:39.929Z,2.20
2023-02-18T16:24:33.424Z,2.20
2023-02-18T16:27:20.835Z,2.08
2023-02-18T16:30:17.419Z,1.93
2023-02-18T16:33:04.820Z,2.60
2023-02-18T16:35:52.197Z,2.00
2023-02-18T16:38:39.557Z,2.03
2023-02-18T16:41:26.909Z,2.40
2023-02-18T16:44:14.984Z,2.15
2023-02-18T16:47:02.486Z,2.60
2023-02-18T16:49:51.820Z,2.60
2023-02-18T16:52:39.230Z,3.63
2023-02-18T16:55:28.371Z,4.57
2023-02-18T16:58:15.776Z,2.90
2023-02-18T17:01:03.513Z,3.23
2023-02-18T17:03:51.466Z,4.33
2023-02-18T17:06:38.928Z,2.77
2023-02-18T17:09:27.421Z,2.67
2023-02-18T17:12:14.918Z,2.93
2023-02-18T17:15:02.287Z,2.90
2023-02-18T17:17:49.890Z,3.03
2023-02-18T17:20:37.706Z,3.40
2023-02-18T17:23:25.381Z,3.30
2023-02-18T17:26:16.097Z,3.40
2023-02-18T17:29:05.396Z,4.63
2023-02-18T17:31:56.751Z,3.93
2023-02-18T17:34:44.195Z,5.57
2023-02-18T17:37:31.630Z,6.10
2023-02-18T17:40:23.202Z,5.17
2023-02-18T17:43:12.813Z,6.03
2023-02-18T17:46:00.286Z,6.17
2023-02-18T17:48:47.907Z,7.17
2023-02-18T17:51:36.812Z,8.90
2023-02-18T17:54:25.731Z,8.60
2023-02-18T17:57:14.574Z,9.33
2023-02-18T18:00:01.916Z,8.63
2023-02-18T18:02:49.481Z,9.80
2023-02-18T18:05:38.409Z,7.70
2023-02-18T18:08:25.747Z,10.60
2023-02-18T18:11:14.907Z,7.80
2023-02-18T18:14:02.330Z,8.67
2023-02-18T18:16:49.703Z,7.10
2023-02-18T18:19:38.054Z,7.60
2023-02-18T18:22:25.430Z,7.10
2023-02-18T18:25:23.484Z,6.50
2023-02-18T18:28:11.125Z,7.47
2023-02-18T18:30:59.117Z,5.87
2023-02-18T18:33:51.301Z,6.00
2023-02-18T18:36:38.702Z,5.33
2023-02-18T18:39:26.157Z,6.70
2023-02-18T18:42:13.503Z,5.67
2023-02-18T18:45:00.876Z,6.90
2023-02-18T18:47:48.735Z,5.87
2023-02-18T18:50:39.235Z,6.10
2023-02-18T18:53:28.268Z,6.00
2023-02-18T18:56:15.696Z,6.37
2023-02-18T18:59:04.012Z,5.90
2023-02-18T19:01:52.316Z,6.10
2023-02-18T19:04:39.741Z,6.80
2023-02-18T19:07:27.136Z,6.20
2023-02-18T19:10:14.601Z,6.10
2023-02-18T19:13:06.533Z,8.00
2023-02-18T19:16:01.866Z,9.33
2023-02-18T19:18:49.537Z,7.30
2023-02-18T19:21:37.181Z,7.47
2023-02-18T19:24:24.523Z,7.73
2023-02-18T19:27:14.182Z,9.70
2023-02-18T19:30:01.834Z,8.63
2023-02-18T19:32:49.650Z,8.13
2023-02-18T19:35:39.180Z,7.90
2023-02-18T19:38:26.644Z,8.63
2023-02-18T19:41:15.324Z,10.23
2023-02-18T19:44:02.767Z,10.97
2023-02-18T19:46:50.100Z,13.77
2023-02-18T19:49:37.509Z,10.27
2023-02-18T19:52:24.883Z,11.73
2023-02-18T19:55:12.261Z,10.50
2023-02-18T19:57:59.679Z,12.07
2023-02-18T20:00:47.108Z,10.20
2023-02-18T20:03:34.438Z,10.83
2023-02-18T20:06:22.105Z,9.80
2023-02-18T20:09:09.483Z,10.53
2023-02-18T20:11:56.905Z,10.07
2023-02-18T20:14:44.399Z,10.23
2023-02-18T20:17:31.731Z,11.03
2023-02-18T20:20:19.946Z,12.63
2023-02-18T20:23:07.277Z,11.57
2023-02-18T20:25:54.664Z,10.20
2023-02-18T20:28:42.320Z,9.93
2023-02-18T20:31:29.764Z,13.37
2023-02-18T20:34:17.675Z,9.33
2023-02-18T20:37:05.074Z,10.40
2023-02-18T20:39:52.560Z,10.50
2023-02-18T20:42:41.875Z,12.30
2023-02-18T20:45:29.251Z,11.10
2023-02-18T20:48:16.626Z,11.80
2023-02-18T20:51:08.202Z,10.53
2023-02-18T20:53:55.673Z,12.10
2023-02-18T20:56:44.063Z,14.07
2023-02-18T20:59:33.269Z,10.73
2023-02-18T21:02:20.661Z,15.47
2023-02-18T21:05:08.225Z,13.60
2023-02-18T21:07:55.567Z,10.33
2023-02-18T21:10:42.991Z,8.77
2023-02-18T21:13:30.387Z,10.50
2023-02-18T21:16:18.701Z,12.97
2023-02-18T21:19:07.739Z,11.10
2023-02-18T21:21:55.184Z,11.13
2023-02-18T21:24:42.956Z,11.30
2023-02-18T21:27:33.988Z,10.93
2023-02-18T21:30:21.388Z,9.90
2023-02-18T21:33:09.093Z,10.93
2023-02-18T21:35:56.510Z,11.37
2023-02-18T21:38:44.678Z,8.20
2023-02-18T21:41:32.073Z,9.80
2023-02-18T21:44:21.465Z,9.60
2023-02-18T21:47:10.588Z,11.73
2023-02-18T21:49:57.969Z,8.87
2023-02-18T21:52:45.337Z,10.30
2023-02-18T21:55:32.721Z,11.47
2023-02-18T21:58:20.572Z,8.50
2023-02-18T22:01:08.532Z,15.30
2023-02-18T22:03:56.389Z,17.97
2023-02-18T22:06:43.783Z,7.50
2023-02-18T22:09:31.182Z,7.33
2023-02-18T22:12:18.554Z,9.97
2023-02-18T22:15:08.035Z,10.27
2023-02-18T22:17:55.438Z,10.27
2023-02-18T22:20:42.762Z,6.93
2023-02-18T22:23:31.959Z,10.23
2023-02-18T22:26:19.438Z,9.63
2023-02-18T22:29:06.864Z,8.47
2023-02-18T22:31:54.427Z,8.50
2023-02-18T22:34:41.840Z,8.33
2023-02-18T22:37:29.260Z,11.73
2023-02-18T22:40:16.647Z,9.17
2023-02-18T22:43:04.018Z,10.23
2023-02-18T22:45:51.465Z,8.63
2023-02-18T22:48:39.144Z,10.23
2023-02-18T22:51:27.950Z,9.87
2023-02-18T22:54:16.167Z,10.13
2023-02-18T22:57:03.561Z,9.63
2023-02-18T22:59:50.949Z,10.33
2023-02-18T23:02:38.326Z,8.50
2023-02-18T23:05:25.759Z,8.67
2023-02-18T23:08:13.090Z,6.67
2023-02-18T23:11:02.184Z,8.03
2023-02-18T23:14:09.865Z,8.00
2023-02-18T23:17:17.802Z,8.27
2023-02-18T23:20:05.580Z,10.43
2023-02-18T23:22:52.925Z,11.90
2023-02-18T23:25:40.313Z,11.67
2023-02-18T23:28:28.569Z,10.03
2023-02-18T23:31:16.097Z,9.77
2023-02-18T23:34:04.388Z,7.73
2023-02-18T23:36:51.745Z,8.27
2023-02-18T23:39:39.922Z,15.67
2023-02-18T23:42:27.352Z,10.63
2023-02-18T23:45:14.753Z,9.67
2023-02-18T23:48:02.156Z,9.97
2023-02-18T23:50:49.508Z,12.67
2023-02-18T23:53:37.792Z,10.67
2023-02-18T23:56:26.284Z,9.67
2023-02-18T23:59:13.901Z,9.50
